createdAt,value
2023-10-09T00:01:39.848Z,4.65
2023-10-09T00:04:25.655Z,4.65
2023-10-09T00:07:12.209Z,4.22
2023-10-09T00:09:58.501Z,4.38
2023-10-09T00:12:44.950Z,4.30
2023-10-09T00:15:34.716Z,4.18
2023-10-09T00:18:30.030Z,4.10
2023-10-09T00:21:21.773Z,4.28
2023-10-09T00:24:14.496Z,4.50
2023-10-09T00:27:13.623Z,3.47
2023-10-09T00:30:00.550Z,3.95
2023-10-09T00:32:53.509Z,4.07
2023-10-09T00:35:45.468Z,4.15
2023-10-09T00:38:35.886Z,4.00
2023-10-09T00:41:25.915Z,4.40
2023-10-09T00:44:12.434Z,4.43
2023-10-09T00:47:08.647Z,4.00
2023-10-09T00:50:02.402Z,4.72
2023-10-09T00:52:52.573Z,3.80
2023-10-09T00:55:52.595Z,4.38
2023-10-09T00:58:38.541Z,4.07
2023-10-09T01:01:35.453Z,4.30
2023-10-09T01:04:21.482Z,4.63
2023-10-09T01:07:16.875Z,4.28
2023-10-09T01:10:17.295Z,4.22
2023-10-09T01:13:04.394Z,4.38
2023-10-09T01:15:49.878Z,4.10
2023-10-09T01:18:39.792Z,4.32
2023-10-09T01:21:26.378Z,4.53
2023-10-09T01:24:11.871Z,4.10
2023-10-09T01:27:00.375Z,4.60
2023-10-09T01:29:49.285Z,4.60
2023-10-09T01:32:36.026Z,3.65
2023-10-09T01:35:22.406Z,4.07
2023-10-09T01:38:14.276Z,3.95
2023-10-09T01:41:08.993Z,4.28
2023-10-09T01:44:01.852Z,4.30
2023-10-09T01:46:48.128Z,4.18
2023-10-09T01:49:44.734Z,4.15
2023-10-09T01:52:31.387Z,4.45
2023-10-09T01:55:37.117Z,4.30
2023-10-09T01:58:22.495Z,4.50
2023-10-09T02:01:07.993Z,4.63
2023-10-09T02:03:53.806Z,4.20
2023-10-09T02:06:39.182Z,4.28
2023-10-09T02:09:32.117Z,4.03
2023-10-09T02:12:19.092Z,3.42
2023-10-09T02:15:17.015Z,4.35
2023-10-09T02:18:17.739Z,4.07
2023-10-09T02:21:06.135Z,3.67
2023-10-09T02:23:51.906Z,4.15
2023-10-09T02:26:40.104Z,3.95
2023-10-09T02:29:25.857Z,4.97
2023-10-09T02:32:26.922Z,4.97
2023-10-09T02:35:32.899Z,5.25
2023-10-09T02:38:19.164Z,4.97
2023-10-09T02:41:05.107Z,4.20
2023-10-09T02:43:56.638Z,4.30
2023-10-09T02:46:42.085Z,4.32
2023-10-09T02:49:28.391Z,4.78
2023-10-09T02:52:18.432Z,4.13
2023-10-09T02:55:09.318Z,3.80
2023-10-09T02:58:07.240Z,4.72
2023-10-09T03:00:53.023Z,4.68
2023-10-09T03:03:39.700Z,4.80
2023-10-09T03:06:29.978Z,5.03
2023-10-09T03:09:18.555Z,4.88
2023-10-09T03:12:06.933Z,4.68
2023-10-09T03:14:52.551Z,4.78
2023-10-09T03:17:38.062Z,4.93
2023-10-09T03:20:23.443Z,5.13
2023-10-09T03:23:11.040Z,5.15
2023-10-09T03:26:14.988Z,4.90
2023-10-09T03:29:11.634Z,5.93
2023-10-09T03:31:58.020Z,5.50
2023-10-09T03:34:45.077Z,5.05
2023-10-09T03:37:36.697Z,5.97
2023-10-09T03:40:23.180Z,5.43
2023-10-09T03:43:11.694Z,5.38
2023-10-09T03:45:58.544Z,6.07
2023-10-09T03:48:47.827Z,6.05
2023-10-09T03:51:33.881Z,6.28
2023-10-09T03:54:23.428Z,6.32
2023-10-09T03:57:09.185Z,6.65
2023-10-09T03:59:56.770Z,5.90
2023-10-09T04:02:43.333Z,7.05
2023-10-09T04:05:29.834Z,6.53
2023-10-09T04:08:30.219Z,6.72
2023-10-09T04:11:18.714Z,7.10
2023-10-09T04:14:11.352Z,5.88
2023-10-09T04:17:15.307Z,6.90
2023-10-09T04:20:20.869Z,6.32
2023-10-09T04:23:07.139Z,5.90
2023-10-09T04:25:52.839Z,6.65
2023-10-09T04:28:38.938Z,6.10
2023-10-09T04:31:33.425Z,5.88
2023-10-09T04:34:23.417Z,6.10
2023-10-09T04:37:14.834Z,6.97
2023-10-09T04:40:13.299Z,6.00
2023-10-09T04:43:07.284Z,5.60
2023-10-09T04:46:09.321Z,5.47
2023-10-09T04:48:54.605Z,5.70
2023-10-09T04:51:59.988Z,6.28
2023-10-09T04:55:11.736Z,5.93
2023-10-09T04:58:09.732Z,6.03
2023-10-09T05:00:58.600Z,5.65
2023-10-09T05:03:44.727Z,6.95
2023-10-09T05:06:56.559Z,7.18
2023-10-09T05:09:57.059Z,6.50
2023-10-09T05:12:48.047Z,6.97
2023-10-09T05:15:35.954Z,7.68
2023-10-09T05:18:28.716Z,6.55
2023-10-09T05:21:14.619Z,7.22
2023-10-09T05:24:13.324Z,7.25
2023-10-09T05:27:18.788Z,6.72
2023-10-09T05:30:31.159Z,6.43
2023-10-09T05:33:34.891Z,6.85
2023-10-09T05:36:26.305Z,7.32
2023-10-09T05:39:19.197Z,7.18
2023-10-09T05:42:11.139Z,7.28
2023-10-09T05:45:15.071Z,7.13
2023-10-09T05:48:00.789Z,7.45
2023-10-09T05:51:04.690Z,7.50
2023-10-09T05:54:10.558Z,7.00
2023-10-09T05:57:21.961Z,6.90
2023-10-09T06:00:26.928Z,7.15
2023-10-09T06:03:22.047Z,6.90
2023-10-09T06:06:09.133Z,6.07
2023-10-09T06:09:13.369Z,5.85
2023-10-09T06:12:19.345Z,5.55
2023-10-09T06:15:20.913Z,5.82
2023-10-09T06:18:25.192Z,5.53
2023-10-09T06:21:30.906Z,5.03
2023-10-09T06:24:16.922Z,5.40
2023-10-09T06:27:02.418Z,5.60
2023-10-09T06:29:50.874Z,5.85
2023-10-09T06:32:38.440Z,5.38
2023-10-09T06:35:24.096Z,4.90
2023-10-09T06:38:23.107Z,5.25
2023-10-09T06:41:08.532Z,4.90
2023-10-09T06:43:54.574Z,4.60
2023-10-09T06:46:46.067Z,4.50
2023-10-09T06:49:34.406Z,5.10
2023-10-09T06:52:39.673Z,5.00
2023-10-09T06:55:38.109Z,4.65
2023-10-09T06:58:29.764Z,4.32
2023-10-09T07:01:26.534Z,5.13
2023-10-09T07:04:34.150Z,4.72
2023-10-09T07:07:22.205Z,4.93
2023-10-09T07:10:26.736Z,4.80
2023-10-09T07:13:12.446Z,5.00
2023-10-09T07:16:16.603Z,6.20
2023-10-09T07:19:10.924Z,6.00
2023-10-09T07:21:56.578Z,6.05
2023-10-09T07:24:45.050Z,5.68
2023-10-09T07:27:51.149Z,6.03
2023-10-09T07:30:38.204Z,5.85
2023-10-09T07:33:32.431Z,7.40
2023-10-09T07:36:30.660Z,6.38
2023-10-09T07:39:18.233Z,6.07
2023-10-09T07:42:28.014Z,6.88
2023-10-09T07:45:19.604Z,7.18
2023-10-09T07:48:06.493Z,6.25
2023-10-09T07:50:58.504Z,7.10
2023-10-09T07:56:39.648Z,6.75
2023-10-09T07:59:25.162Z,6.70
2023-10-09T08:02:14.895Z,6.63
2023-10-09T08:05:06.312Z,6.35
2023-10-09T08:08:27.057Z,7.13
2023-10-09T08:11:56.336Z,7.15
2023-10-09T08:14:44.716Z,7.35
2023-10-09T08:17:30.268Z,5.85
2023-10-09T08:20:18.573Z,6.70
2023-10-09T08:23:06.291Z,6.18
2023-10-09T08:26:11.694Z,5.90
2023-10-09T08:29:16.352Z,6.30
2023-10-09T08:34:18.799Z,6.45
2023-10-09T08:35:31.224Z,6.82
2023-10-09T08:41:24.341Z,5.75
2023-10-09T08:44:13.836Z,6.30
2023-10-09T08:47:00.183Z,5.97
2023-10-09T08:49:47.015Z,6.45
2023-10-09T08:52:33.452Z,7.05
2023-10-09T08:55:18.832Z,6.18
2023-10-09T08:58:11.744Z,6.45
2023-10-09T09:01:00.067Z,7.78
2023-10-09T09:03:45.627Z,6.78
2023-10-09T09:06:42.347Z,7.45
2023-10-09T09:09:31.426Z,6.90
2023-10-09T09:12:16.888Z,7.55
2023-10-09T09:15:04.112Z,6.78
2023-10-09T09:17:52.779Z,7.72
2023-10-09T09:20:41.574Z,6.95
2023-10-09T09:23:27.772Z,6.72
2023-10-09T09:26:13.652Z,6.78
2023-10-09T09:28:59.445Z,7.28
2023-10-09T09:32:13.090Z,8.70
2023-10-09T09:34:58.885Z,8.45
2023-10-09T09:37:54.953Z,9.30
2023-10-09T09:40:42.762Z,9.13
2023-10-09T09:43:32.298Z,10.68
2023-10-09T09:46:21.731Z,10.30
2023-10-09T09:49:22.928Z,10.20
2023-10-09T09:52:12.805Z,9.07
2023-10-09T09:54:59.624Z,9.30
2023-10-09T09:57:53.347Z,9.48
2023-10-09T10:00:42.596Z,9.00
2023-10-09T10:03:35.629Z,8.68
2023-10-09T10:06:22.638Z,8.48
2023-10-09T10:09:08.622Z,7.85
2023-10-09T10:11:54.258Z,7.13
2023-10-09T10:15:00.781Z,7.13
2023-10-09T10:18:00.558Z,7.72
2023-10-09T10:21:17.653Z,7.50
2023-10-09T10:24:13.114Z,6.95
2023-10-09T10:27:10.909Z,6.35
2023-10-09T10:30:15.084Z,7.47
2023-10-09T10:33:13.738Z,6.85
2023-10-09T10:36:07.273Z,6.50
2023-10-09T10:39:20.849Z,7.00
2023-10-09T10:42:08.055Z,7.13
2023-10-09T10:44:55.062Z,6.90
2023-10-09T10:47:41.750Z,8.25
2023-10-09T10:50:33.160Z,7.88
2023-10-09T10:53:20.720Z,7.72
2023-10-09T10:56:15.213Z,7.90
2023-10-09T10:59:06.731Z,6.78
2023-10-09T11:02:02.652Z,6.82
2023-10-09T11:04:55.065Z,6.80
2023-10-09T11:07:42.169Z,5.95
2023-10-09T11:10:29.604Z,6.18
2023-10-09T11:13:32.214Z,5.50
2023-10-09T11:16:42.350Z,6.72
2023-10-09T11:19:28.603Z,7.93
2023-10-09T11:22:14.531Z,6.43
2023-10-09T11:25:20.730Z,6.60
2023-10-09T11:28:32.518Z,6.70
2023-10-09T11:31:18.397Z,5.88
2023-10-09T11:34:03.957Z,5.85
2023-10-09T11:36:57.038Z,6.47
2023-10-09T11:39:54.989Z,6.38
2023-10-09T11:42:50.389Z,5.72
2023-10-09T11:45:39.225Z,6.18
2023-10-09T11:48:30.465Z,5.97
2023-10-09T11:51:22.510Z,4.65
2023-10-09T11:54:09.983Z,5.28
2023-10-09T11:56:56.656Z,5.00
2023-10-09T11:59:42.999Z,4.85
2023-10-09T12:02:28.747Z,5.05
2023-10-09T12:05:20.511Z,5.13
2023-10-09T12:08:09.789Z,5.05
2023-10-09T12:10:56.853Z,5.47
2023-10-09T12:13:45.369Z,5.93
2023-10-09T12:16:34.362Z,5.40
2023-10-09T12:19:20.087Z,5.78
2023-10-09T12:22:17.403Z,5.68
2023-10-09T12:25:10.547Z,5.45
2023-10-09T12:27:57.584Z,5.07
2023-10-09T12:30:43.426Z,6.00
2023-10-09T12:33:30.178Z,5.68
2023-10-09T12:36:21.011Z,6.22
2023-10-09T12:39:07.151Z,4.40
2023-10-09T12:41:55.381Z,5.45
2023-10-09T12:44:41.185Z,4.95
2023-10-09T12:47:27.851Z,4.18
2023-10-09T12:50:15.333Z,4.35
2023-10-09T12:53:08.058Z,4.10
2023-10-09T12:55:57.765Z,5.35
2023-10-09T12:58:53.998Z,4.57
2023-10-09T13:01:46.146Z,4.63
2023-10-09T13:04:33.523Z,5.18
2023-10-09T13:07:23.202Z,3.55
2023-10-09T13:10:09.709Z,4.07
2023-10-09T13:12:58.215Z,3.88
2023-10-09T13:15:43.913Z,3.28
2023-10-09T13:18:29.524Z,2.97
2023-10-09T13:21:16.570Z,2.95
2023-10-09T13:24:04.598Z,3.53
2023-10-09T13:26:52.715Z,3.45
2023-10-09T13:29:42.619Z,3.38
2023-10-09T13:32:28.500Z,3.38
2023-10-09T13:35:16.187Z,3.90
2023-10-09T13:38:02.940Z,3.95
2023-10-09T13:40:49.866Z,4.93
2023-10-09T13:43:36.099Z,4.32
2023-10-09T13:46:22.008Z,5.30
2023-10-09T13:49:13.292Z,5.07
2023-10-09T13:52:01.034Z,4.47
2023-10-09T13:54:50.590Z,3.95
2023-10-09T13:57:36.686Z,3.88
2023-10-09T14:00:34.100Z,3.78
2023-10-09T14:03:21.450Z,4.00
2023-10-09T14:06:13.789Z,4.90
2023-10-09T14:09:09.201Z,5.97
2023-10-09T14:12:07.624Z,5.50
2023-10-09T14:14:55.276Z,6.38
2023-10-09T14:17:43.845Z,7.30
2023-10-09T14:20:32.975Z,7.55
2023-10-09T14:23:21.958Z,6.95
2023-10-09T14:26:07.628Z,6.93
2023-10-09T14:28:55.043Z,7.25
2023-10-09T14:31:40.897Z,7.65
2023-10-09T14:34:30.487Z,8.88
2023-10-09T14:37:16.451Z,8.80
2023-10-09T14:40:02.402Z,8.55
2023-10-09T14:42:48.037Z,9.70
2023-10-09T14:45:37.853Z,8.85
2023-10-09T14:48:31.835Z,9.13
2023-10-09T14:51:17.325Z,8.95
2023-10-09T14:54:03.262Z,7.90
2023-10-09T14:56:49.137Z,8.27
2023-10-09T14:59:34.923Z,6.15
2023-10-09T15:02:20.775Z,7.25
2023-10-09T15:05:06.594Z,7.57
2023-10-09T15:07:54.246Z,8.55
2023-10-09T15:10:52.806Z,6.95
2023-10-09T15:13:40.803Z,6.10
2023-10-09T15:16:31.927Z,6.93
2023-10-09T15:19:18.012Z,6.03
2023-10-09T15:22:09.598Z,6.00
2023-10-09T15:24:55.587Z,6.18
2023-10-09T15:27:47.304Z,6.32
2023-10-09T15:30:34.938Z,5.38
2023-10-09T15:33:22.133Z,4.90
2023-10-09T15:36:12.989Z,4.90
2023-10-09T15:39:00.621Z,5.05
2023-10-09T15:41:50.061Z,4.38
2023-10-09T15:44:38.268Z,5.25
2023-10-09T15:47:24.067Z,5.32
2023-10-09T15:50:11.344Z,5.07
2023-10-09T15:52:56.889Z,5.65
2023-10-09T15:55:42.393Z,6.03
2023-10-09T15:58:27.705Z,5.60
2023-10-09T16:01:21.144Z,4.53
2023-10-09T16:04:11.494Z,4.97
2023-10-09T16:06:58.278Z,4.65
2023-10-09T16:09:43.870Z,4.10
2023-10-09T16:12:32.077Z,4.28
2023-10-09T16:15:18.467Z,4.50
2023-10-09T16:18:07.744Z,5.28
2023-10-09T16:20:53.400Z,5.05
2023-10-09T16:23:39.313Z,5.20
2023-10-09T16:26:25.897Z,5.97
2023-10-09T16:29:11.347Z,5.47
2023-10-09T16:31:56.925Z,6.22
2023-10-09T16:34:42.311Z,7.53
2023-10-09T16:37:27.814Z,6.80
2023-10-09T16:40:14.804Z,8.18
2023-10-09T16:43:02.290Z,7.68
2023-10-09T16:45:47.965Z,8.27
2023-10-09T16:48:33.424Z,7.28
2023-10-09T16:51:22.941Z,7.30
2023-10-09T16:54:08.415Z,6.88
2023-10-09T16:56:56.697Z,6.90
2023-10-09T16:59:43.198Z,7.25
2023-10-09T17:02:28.987Z,8.00
2023-10-09T17:05:14.942Z,7.32
2023-10-09T17:08:01.550Z,6.85
2023-10-09T17:10:46.950Z,6.43
2023-10-09T17:13:32.466Z,15.90
2023-10-09T17:16:20.403Z,10.07
2023-10-09T17:19:07.268Z,10.80
2023-10-09T17:21:53.178Z,8.27
2023-10-09T17:24:43.038Z,8.68
2023-10-09T17:27:30.981Z,8.98
2023-10-09T17:30:17.006Z,9.50
2023-10-09T17:33:02.751Z,7.20
2023-10-09T17:35:48.449Z,7.30
2023-10-09T17:38:34.581Z,6.00
2023-10-09T17:41:22.802Z,6.32
2023-10-09T17:44:08.837Z,6.30
2023-10-09T17:46:54.666Z,7.10
2023-10-09T17:49:40.206Z,6.32
2023-10-09T17:52:25.963Z,6.47
2023-10-09T17:55:14.232Z,6.63
2023-10-09T17:58:01.074Z,6.32
2023-10-09T18:00:47.292Z,6.85
2023-10-09T18:03:32.902Z,6.55
2023-10-09T18:06:20.046Z,6.38
2023-10-09T18:09:17.000Z,6.13
2023-10-09T18:12:04.466Z,6.63
2023-10-09T18:14:55.295Z,6.18
2023-10-09T18:17:41.636Z,8.82
2023-10-09T18:20:28.891Z,9.07
2023-10-09T18:23:14.500Z,9.38
2023-10-09T18:26:02.485Z,7.53
2023-10-09T18:28:49.364Z,8.57
2023-10-09T18:31:37.184Z,9.23
2023-10-09T18:34:26.940Z,7.03
2023-10-09T18:37:13.184Z,6.38
2023-10-09T18:40:00.410Z,7.20
2023-10-09T18:42:46.176Z,6.70
2023-10-09T18:45:35.260Z,7.35
2023-10-09T18:48:27.968Z,6.22
2023-10-09T18:51:15.617Z,6.72
2023-10-09T18:54:05.561Z,8.60
2023-10-09T18:56:51.170Z,7.15
2023-10-09T18:59:36.584Z,7.78
2023-10-09T19:02:22.330Z,7.03
2023-10-09T19:05:11.590Z,7.43
2023-10-09T19:07:57.710Z,6.97
2023-10-09T19:10:44.335Z,7.47
2023-10-09T19:13:30.924Z,7.00
2023-10-09T19:16:17.110Z,8.00
2023-10-09T19:19:06.055Z,7.15
2023-10-09T19:21:54.268Z,6.57
2023-10-09T19:24:41.586Z,6.70
2023-10-09T19:27:27.409Z,7.85
2023-10-09T19:30:19.677Z,10.05
2023-10-09T19:33:07.066Z,11.70
2023-10-09T19:35:52.604Z,10.05
2023-10-09T19:38:51.420Z,9.38
2023-10-09T19:41:37.044Z,10.05
2023-10-09T19:44:22.797Z,11.38
2023-10-09T19:47:08.140Z,9.88
2023-10-09T19:49:53.753Z,9.57
2023-10-09T19:52:40.868Z,9.75
2023-10-09T19:55:26.517Z,8.98
2023-10-09T19:58:14.065Z,8.40
2023-10-09T20:00:59.781Z,8.48
2023-10-09T20:03:46.035Z,8.25
2023-10-09T20:06:32.245Z,8.55
2023-10-09T20:09:18.421Z,8.98
2023-10-09T20:12:04.227Z,8.77
2023-10-09T20:14:49.925Z,8.45
2023-10-09T20:17:35.331Z,8.98
2023-10-09T20:20:23.874Z,7.07
2023-10-09T20:23:09.668Z,6.72
2023-10-09T20:26:05.782Z,6.47
2023-10-09T20:28:51.500Z,7.05
2023-10-09T20:31:38.709Z,6.50
2023-10-09T20:34:25.664Z,6.07
2023-10-09T20:37:11.770Z,6.07
2023-10-09T20:39:59.961Z,7.05
2023-10-09T20:42:47.353Z,6.75
2023-10-09T20:45:34.457Z,6.50
2023-10-09T20:48:19.882Z,6.00
2023-10-09T20:51:06.017Z,5.95
2023-10-09T20:53:51.478Z,6.15
2023-10-09T20:56:38.020Z,7.55
2023-10-09T20:59:24.055Z,6.32
2023-10-09T21:02:09.488Z,6.07
2023-10-09T21:04:55.461Z,6.05
2023-10-09T21:07:42.369Z,5.90
2023-10-09T21:10:27.973Z,5.88
2023-10-09T21:13:13.542Z,5.55
2023-10-09T21:16:00.042Z,6.82
2023-10-09T21:18:47.261Z,6.20
2023-10-09T21:21:32.885Z,6.63
2023-10-09T21:24:18.366Z,6.80
2023-10-09T21:27:04.528Z,6.72
2023-10-09T21:29:50.368Z,7.05
2023-10-09T21:32:42.346Z,5.60
2023-10-09T21:35:29.701Z,6.07
2023-10-09T21:38:14.885Z,6.00
2023-10-09T21:41:02.356Z,6.82
2023-10-09T21:43:48.171Z,5.88
2023-10-09T21:46:33.807Z,6.07
2023-10-09T21:49:19.365Z,6.82
2023-10-09T21:52:05.136Z,6.25
2023-10-09T21:54:50.568Z,6.28
2023-10-09T21:57:36.844Z,6.07
2023-10-09T22:00:32.116Z,6.07
2023-10-09T22:03:18.483Z,6.25
2023-10-09T22:06:05.773Z,6.78
2023-10-09T22:08:51.454Z,5.78
2023-10-09T22:11:37.163Z,5.03
2023-10-09T22:14:23.933Z,5.55
2023-10-09T22:17:09.629Z,5.35
2023-10-09T22:19:55.481Z,5.43
2023-10-09T22:22:45.266Z,6.55
2023-10-09T22:25:31.356Z,5.57
2023-10-09T22:28:16.701Z,5.20
2023-10-09T22:31:05.311Z,5.70
2023-10-09T22:33:51.353Z,5.30
2023-10-09T22:36:53.193Z,5.95
2023-10-09T22:39:42.420Z,6.10
2023-10-09T22:42:28.496Z,6.68
2023-10-09T22:45:15.561Z,5.53
2023-10-09T22:48:04.824Z,5.95
2023-10-09T22:50:59.784Z,6.30
2023-10-09T22:53:47.936Z,5.40
2023-10-09T22:56:34.238Z,5.40
2023-10-09T22:59:27.889Z,5.70
2023-10-09T23:02:24.512Z,5.97
2023-10-09T23:05:14.010Z,5.40
2023-10-09T23:08:03.223Z,5.50
2023-10-09T23:10:54.577Z,5.32
2023-10-09T23:13:54.796Z,4.90
2023-10-09T23:16:54.086Z,5.28
2023-10-09T23:19:39.516Z,4.38
2023-10-09T23:22:33.962Z,5.03
2023-10-09T23:25:35.902Z,4.88
2023-10-09T23:28:40.188Z,5.05
2023-10-09T23:31:36.885Z,4.72
2023-10-09T23:34:32.937Z,4.72
2023-10-09T23:37:18.628Z,4.57
2023-10-09T23:40:28.425Z,5.03
2023-10-09T23:43:32.173Z,5.07
2023-10-09T23:46:25.003Z,4.28
2023-10-09T23:49:19.191Z,4.75
2023-10-09T23:52:06.931Z,4.25
2023-10-09T23:55:01.839Z,3.80
2023-10-09T23:57:47.931Z,4.63
